Time;durP1;ratioP1;P1;durP2;ratioP2;P2;SDS_P1;SDS_P2;PMS_P1;PMS_P2;Temp;Humidity;BMP_temperature;BMP_pressure;BME280_temperature;BME280_humidity;BME280_pressure;Samples;Min_cycle;Max_cycle;Signal;HPM_P1;HPM_P2
2022/01/02 00:02:15;;;;;;;4.18;3.70;;;16.60;88.70;;;;;;4127593;28;20116;-60
2022/01/02 00:04:48;;;;;;;4.43;3.45;;;16.60;88.80;;;;;;4127013;28;20453;-60
2022/01/02 00:07:15;;;;;;;4.55;3.78;;;16.60;88.80;;;;;;4126811;28;20104;-60
2022/01/02 00:09:39;;;;;;;6.45;3.53;;;16.60;88.90;;;;;;4127520;28;20092;-60
2022/01/02 00:12:06;;;;;;;6.20;3.95;;;16.60;88.90;;;;;;4124954;28;20094;-60
2022/01/02 00:14:34;;;;;;;6.32;3.42;;;16.50;88.80;;;;;;4126321;28;20105;-60
2022/01/02 00:16:57;;;;;;;4.18;3.85;;;16.60;88.90;;;;;;4126872;28;20046;-60
2022/01/02 00:19:29;;;;;;;5.80;3.67;;;16.50;88.90;;;;;;4126883;28;20054;-60
2022/01/02 00:21:55;;;;;;;6.88;3.92;;;16.50;88.90;;;;;;4117611;28;20055;-64
2022/01/02 00:24:20;;;;;;;6.90;3.97;;;16.50;89.00;;;;;;4111234;28;20050;-60
2022/01/02 00:26:45;;;;;;;6.32;3.90;;;16.50;88.90;;;;;;4110654;28;20125;-59
2022/01/02 00:29:09;;;;;;;7.45;4.00;;;16.50;88.90;;;;;;4125485;28;20113;-60
2022/01/02 00:31:34;;;;;;;4.25;3.55;;;16.50;89.00;;;;;;4126666;28;20158;-59
2022/01/02 00:33:58;;;;;;;7.07;4.50;;;16.50;89.00;;;;;;4125365;28;20089;-59
2022/01/02 00:36:21;;;;;;;5.40;3.50;;;16.50;88.90;;;;;;4126239;28;20058;-58
2022/01/02 00:38:44;;;;;;;7.25;4.38;;;16.50;89.10;;;;;;4126792;28;20117;-59
2022/01/02 00:41:07;;;;;;;6.10;3.58;;;16.50;89.10;;;;;;4125313;28;20046;-59
2022/01/02 00:43:38;;;;;;;5.95;3.65;;;16.50;89.20;;;;;;4125570;28;20096;-60
2022/01/02 00:46:05;;;;;;;8.63;4.60;;;16.50;89.20;;;;;;4113332;28;20518;-60
2022/01/02 00:48:32;;;;;;;6.13;3.50;;;16.50;89.00;;;;;;4110551;28;20047;-59
2022/01/02 00:51:02;;;;;;;4.20;3.65;;;16.40;89.00;;;;;;4110039;28;20121;-60
2022/01/02 00:53:31;;;;;;;9.63;4.50;;;16.40;89.10;;;;;;4110643;28;20503;-59
2022/01/02 00:55:58;;;;;;;5.28;3.80;;;16.40;89.20;;;;;;4110230;28;20050;-59
2022/01/02 00:58:22;;;;;;;12.00;4.35;;;16.40;89.10;;;;;;4109510;28;20058;-59
2022/01/02 01:00:48;;;;;;;6.93;3.80;;;16.40;89.00;;;;;;4111328;28;20466;-59
2022/01/02 01:03:13;;;;;;;6.35;3.90;;;16.40;89.00;;;;;;4110183;28;20062;-59
2022/01/02 01:05:41;;;;;;;7.40;3.45;;;16.40;89.00;;;;;;4108672;28;20105;-59
2022/01/02 01:08:06;;;;;;;8.85;4.57;;;16.40;89.10;;;;;;4110305;28;20106;-59
2022/01/02 01:10:32;;;;;;;9.75;4.22;;;16.40;89.10;;;;;;4110095;28;20074;-59
2022/01/02 01:12:56;;;;;;;7.45;4.63;;;16.40;89.10;;;;;;4109821;28;20446;-59
2022/01/02 01:15:20;;;;;;;6.90;3.45;;;16.40;89.00;;;;;;4110323;28;20121;-59
2022/01/02 01:17:52;;;;;;;7.68;4.60;;;16.40;89.20;;;;;;4123708;28;20092;-58
2022/01/02 01:20:16;;;;;;;7.38;4.22;;;16.40;89.30;;;;;;4141409;28;20045;-59
2022/01/02 01:22:41;;;;;;;7.85;4.43;;;16.40;89.30;;;;;;4124837;28;20042;-59
2022/01/02 01:25:07;;;;;;;12.10;4.00;;;16.40;90.00;;;;;;4126464;28;20050;-59
2022/01/02 01:27:32;;;;;;;6.68;4.28;;;16.30;89.20;;;;;;4126576;28;20096;-59
2022/01/02 01:29:55;;;;;;;10.52;4.63;;;16.30;89.30;;;;;;4126539;28;20061;-59
2022/01/02 01:32:17;;;;;;;7.68;4.20;;;16.30;89.30;;;;;;4117415;28;20046;-59
2022/01/02 01:34:41;;;;;;;7.03;4.38;;;16.30;89.40;;;;;;4094241;28;20058;-59
2022/01/02 01:37:04;;;;;;;8.43;4.35;;;16.30;89.30;;;;;;4095769;28;20047;-59
2022/01/02 01:39:31;;;;;;;6.18;4.57;;;16.30;89.50;;;;;;4094060;28;20051;-59
2022/01/02 01:41:57;;;;;;;6.95;4.38;;;16.30;89.50;;;;;;4105964;28;20046;-60
2022/01/02 01:44:27;;;;;;;10.82;4.95;;;16.30;89.40;;;;;;4106485;28;20051;-59
2022/01/02 01:46:54;;;;;;;7.68;4.15;;;16.30;89.30;;;;;;4121842;28;20457;-59
2022/01/02 01:49:22;;;;;;;9.75;4.88;;;16.30;89.40;;;;;;4136941;28;20145;-59
2022/01/02 01:51:45;;;;;;;6.47;4.45;;;16.30;90.00;;;;;;4125702;28;20101;-59
2022/01/02 01:54:09;;;;;;;7.35;4.72;;;16.30;89.70;;;;;;4125418;28;20058;-59
2022/01/02 01:56:33;;;;;;;7.90;4.47;;;16.30;89.70;;;;;;4127448;28;20112;-58
2022/01/02 01:58:56;;;;;;;6.80;4.68;;;16.20;89.60;;;;;;4124818;28;20112;-59
2022/01/02 02:01:20;;;;;;;8.52;5.30;;;16.20;89.70;;;;;;4137133;28;20093;-59
2022/01/02 02:03:49;;;;;;;7.88;4.60;;;16.20;89.80;;;;;;4123761;28;20047;-59
2022/01/02 02:06:12;;;;;;;9.82;4.68;;;16.20;89.90;;;;;;4123077;28;20046;-60
2022/01/02 02:08:36;;;;;;;10.82;4.68;;;16.20;89.90;;;;;;4138622;28;20085;-60
2022/01/02 02:10:59;;;;;;;9.38;4.75;;;16.20;89.90;;;;;;4124763;28;20059;-59
2022/01/02 02:13:26;;;;;;;6.32;4.53;;;16.20;90.00;;;;;;4127055;28;20426;-59
2022/01/02 02:15:53;;;;;;;10.30;4.97;;;16.20;89.90;;;;;;4124925;28;20050;-59
2022/01/02 02:18:17;;;;;;;7.65;5.28;;;16.20;89.80;;;;;;4115402;28;20050;-60
2022/01/02 02:20:41;;;;;;;9.20;4.93;;;16.20;89.90;;;;;;4108639;28;20094;-59
2022/01/02 02:23:14;;;;;;;10.82;5.68;;;16.20;89.90;;;;;;4109261;28;20439;-60
2022/01/02 02:25:39;;;;;;;9.57;5.47;;;16.20;90.30;;;;;;4108232;28;20110;-59
2022/01/02 02:28:04;;;;;;;8.93;5.20;;;16.20;89.90;;;;;;4122895;28;20581;-59
2022/01/02 02:30:31;;;;;;;9.80;5.00;;;16.20;90.00;;;;;;4113472;28;20097;-60
2022/01/02 02:32:56;;;;;;;8.32;5.43;;;16.20;90.00;;;;;;4110749;28;20467;-59
2022/01/02 02:35:20;;;;;;;6.93;5.07;;;16.20;90.00;;;;;;4115539;28;20054;-60
2022/01/02 02:37:46;;;;;;;13.18;5.70;;;16.20;90.10;;;;;;4110760;28;20050;-59
2022/01/02 02:40:15;;;;;;;13.40;6.03;;;16.10;90.10;;;;;;4110272;28;20094;-59
2022/01/02 02:42:46;;;;;;;11.35;5.50;;;16.10;90.10;;;;;;4111840;28;20058;-59
2022/01/02 02:50:32;;;;;;;9.75;5.18;;;16.10;90.10;;;;;;4109757;28;20047;-60
2022/01/02 02:52:56;;;;;;;11.52;5.13;;;16.10;90.20;;;;;;4126608;28;20487;-59
2022/01/02 02:55:23;;;;;;;12.48;6.00;;;16.10;90.20;;;;;;4096261;28;20051;-59
2022/01/02 02:57:46;;;;;;;11.23;5.05;;;16.10;90.20;;;;;;4117644;28;20471;-59
2022/01/02 03:00:10;;;;;;;8.65;5.25;;;16.10;90.30;;;;;;4126839;28;20050;-60
2022/01/02 03:02:33;;;;;;;11.07;6.10;;;16.10;90.30;;;;;;4127119;28;20384;-60
2022/01/02 03:04:56;;;;;;;8.88;5.68;;;16.10;90.20;;;;;;4115231;28;20055;-60
2022/01/02 03:07:20;;;;;;;9.65;5.85;;;16.10;90.30;;;;;;4112207;28;20058;-60
2022/01/02 03:09:49;;;;;;;8.27;4.85;;;16.10;90.30;;;;;;4110341;28;20059;-60
2022/01/02 03:12:14;;;;;;;10.60;5.28;;;16.10;90.40;;;;;;4123848;28;20093;-60
2022/01/02 03:14:42;;;;;;;10.45;5.88;;;16.10;90.80;;;;;;4110057;28;20102;-60
2022/01/02 03:17:07;;;;;;;8.57;5.18;;;16.10;90.40;;;;;;4110401;28;20486;-59
2022/01/02 03:19:31;;;;;;;12.02;6.05;;;16.10;90.40;;;;;;4111790;28;20054;-60
2022/01/02 03:21:54;;;;;;;10.18;5.90;;;16.10;90.40;;;;;;4112768;28;20043;-59
2022/01/02 03:24:18;;;;;;;7.55;5.25;;;16.10;90.40;;;;;;4113152;28;20442;-60
2022/01/02 03:26:43;;;;;;;8.02;5.60;;;16.10;90.40;;;;;;4111514;28;20109;-60
2022/01/02 03:29:06;;;;;;;9.32;5.40;;;16.10;90.40;;;;;;4110462;28;20058;-60
2022/01/02 03:31:29;;;;;;;10.57;5.75;;;16.10;90.40;;;;;;4108156;28;20557;-59
2022/01/02 03:33:52;;;;;;;11.02;5.93;;;16.10;90.40;;;;;;4117063;28;20054;-59
2022/01/02 03:36:15;;;;;;;10.23;5.43;;;16.10;90.40;;;;;;4111668;28;20055;-59
2022/01/02 03:38:39;;;;;;;7.97;5.38;;;16.10;90.50;;;;;;4099133;28;20068;-59
2022/01/02 03:41:02;;;;;;;8.82;6.28;;;16.10;90.50;;;;;;4094627;28;20090;-60
2022/01/02 03:43:27;;;;;;;12.73;6.43;;;16.10;90.50;;;;;;4110435;28;20084;-59
2022/01/02 03:45:50;;;;;;;9.20;5.80;;;16.10;90.50;;;;;;4139265;28;20062;-60
2022/01/02 03:48:14;;;;;;;10.00;5.85;;;16.10;90.50;;;;;;4110478;28;20272;-60
2022/01/02 03:50:37;;;;;;;10.10;5.40;;;16.10;90.50;;;;;;4110336;28;20054;-60
2022/01/02 03:53:01;;;;;;;7.95;5.18;;;16.10;90.50;;;;;;4110892;28;20482;-59
2022/01/02 03:55:24;;;;;;;10.27;5.35;;;16.00;90.50;;;;;;4109996;28;20059;-60
2022/01/02 03:57:47;;;;;;;8.38;5.60;;;16.10;90.50;;;;;;4110588;28;20062;-60
2022/01/02 04:00:14;;;;;;;13.25;5.30;;;16.10;90.50;;;;;;4109793;28;20085;-60
2022/01/02 04:02:39;;;;;;;7.43;4.97;;;16.00;90.50;;;;;;4113972;28;20046;-60
2022/01/02 04:05:03;;;;;;;7.97;5.00;;;16.00;90.50;;;;;;4125840;28;20487;-60
2022/01/02 04:07:26;;;;;;;9.75;5.70;;;16.00;90.50;;;;;;4127521;28;20104;-60
2022/01/02 04:09:51;;;;;;;8.00;5.07;;;16.00;90.50;;;;;;4117702;28;20112;-60
2022/01/02 04:12:13;;;;;;;9.20;5.85;;;16.00;90.90;;;;;;4123831;28;20054;-59
2022/01/02 04:14:36;;;;;;;12.77;5.88;;;16.00;90.60;;;;;;4111749;28;20043;-59
2022/01/02 04:17:01;;;;;;;5.53;4.55;;;16.00;90.90;;;;;;4123516;28;20167;-59
2022/01/02 04:19:24;;;;;;;9.80;5.75;;;16.00;90.60;;;;;;4110965;28;20062;-60
2022/01/02 04:21:48;;;;;;;11.10;5.93;;;16.00;90.60;;;;;;4111223;28;20128;-60
2022/01/02 04:24:11;;;;;;;14.02;5.53;;;16.00;90.60;;;;;;4107304;28;20094;-59
2022/01/02 04:26:34;;;;;;;8.95;5.25;;;16.00;90.60;;;;;;4095034;28;20094;-60
2022/01/02 04:28:58;;;;;;;12.45;5.35;;;16.00;90.60;;;;;;4095159;28;20546;-59
2022/01/02 04:31:21;;;;;;;9.70;5.20;;;16.00;90.60;;;;;;4096806;28;20055;-59
2022/01/02 04:33:45;;;;;;;9.20;5.07;;;16.00;90.60;;;;;;4093297;28;20122;-60
2022/01/02 04:36:08;;;;;;;8.98;4.70;;;16.00;90.60;;;;;;4122939;28;20053;-59
2022/01/02 04:38:32;;;;;;;12.38;4.75;;;16.00;91.00;;;;;;4109627;28;20046;-59
2022/01/02 04:40:55;;;;;;;9.68;4.57;;;16.00;90.70;;;;;;4109326;28;20050;-59
2022/01/02 04:43:18;;;;;;;10.23;4.72;;;16.00;90.70;;;;;;4121361;28;20050;-60
2022/01/02 04:45:41;;;;;;;13.00;5.53;;;16.00;90.70;;;;;;4126459;28;20096;-60
2022/01/02 04:48:04;;;;;;;14.25;4.93;;;16.00;90.70;;;;;;4128275;28;20104;-60
2022/01/02 04:50:29;;;;;;;9.07;4.53;;;16.00;90.70;;;;;;4139306;28;20774;-60
2022/01/02 04:52:52;;;;;;;11.43;5.30;;;16.00;90.70;;;;;;4137198;28;20049;-60
2022/01/02 04:55:16;;;;;;;7.22;4.85;;;16.00;90.80;;;;;;4139110;28;20507;-60
2022/01/02 04:57:39;;;;;;;8.20;4.60;;;15.90;90.70;;;;;;4125129;28;20088;-61
2022/01/02 05:00:06;;;;;;;12.02;4.85;;;16.00;90.80;;;;;;4124896;28;20120;-60
2022/01/02 05:02:29;;;;;;;8.00;4.40;;;16.00;90.80;;;;;;4124930;28;20049;-60
2022/01/02 05:04:53;;;;;;;13.73;4.93;;;16.00;90.90;;;;;;4126319;28;20418;-59
2022/01/02 05:07:18;;;;;;;6.93;4.28;;;16.00;90.90;;;;;;4124975;28;20101;-59
2022/01/02 05:09:41;;;;;;;9.52;4.78;;;16.10;90.90;;;;;;4124839;28;20469;-60
2022/01/02 05:12:05;;;;;;;11.27;4.43;;;16.10;90.70;;;;;;4124956;28;20132;-59
2022/01/02 05:14:28;;;;;;;9.10;4.28;;;16.20;90.60;;;;;;4138698;28;20053;-59
2022/01/02 05:16:52;;;;;;;9.10;4.20;;;16.20;90.50;;;;;;4115406;28;20176;-60
2022/01/02 05:19:15;;;;;;;11.25;4.63;;;16.30;90.40;;;;;;4108758;28;20042;-59
2022/01/02 05:21:38;;;;;;;13.48;5.13;;;16.30;90.40;;;;;;4115605;28;20100;-59
2022/01/02 05:24:02;;;;;;;9.57;4.55;;;16.30;90.30;;;;;;4124964;28;20058;-59
2022/01/02 05:26:26;;;;;;;9.70;4.45;;;16.30;90.30;;;;;;4123713;28;20589;-59
2022/01/02 05:28:49;;;;;;;7.32;4.15;;;16.30;90.20;;;;;;4125042;28;20058;-59
2022/01/02 05:31:13;;;;;;;12.77;5.00;;;16.30;90.20;;;;;;4125209;28;21207;-59
2022/01/02 05:33:37;;;;;;;15.23;4.40;;;16.30;90.30;;;;;;4123907;28;20054;-59
2022/01/02 05:36:00;;;;;;;10.02;4.35;;;16.30;90.20;;;;;;4108920;28;20064;-59
2022/01/02 05:38:23;;;;;;;10.13;4.15;;;16.30;90.30;;;;;;4109506;28;20055;-59
2022/01/02 05:40:50;;;;;;;7.25;4.15;;;16.30;90.30;;;;;;4111272;28;20074;-60
2022/01/02 05:43:15;;;;;;;13.07;4.68;;;16.30;90.30;;;;;;4093078;28;20055;-59
2022/01/02 05:45:38;;;;;;;11.85;4.03;;;16.30;90.70;;;;;;4092769;28;20471;-59
2022/01/02 05:48:05;;;;;;;8.20;4.43;;;16.30;90.30;;;;;;4106155;28;20059;-59
2022/01/02 05:50:29;;;;;;;8.00;4.18;;;16.30;90.30;;;;;;4092150;28;20432;-60
2022/01/02 05:52:53;;;;;;;13.82;5.35;;;16.20;90.30;;;;;;4092489;28;20083;-60
2022/01/02 05:55:17;;;;;;;10.20;4.65;;;16.20;90.30;;;;;;4094115;28;20106;-59
2022/01/02 05:57:42;;;;;;;9.80;3.88;;;16.20;90.70;;;;;;4104138;28;20054;-60
2022/01/02 06:00:07;;;;;;;10.25;4.10;;;16.20;90.40;;;;;;4124606;28;20471;-59
2022/01/02 06:02:36;;;;;;;7.85;4.63;;;16.20;90.40;;;;;;4110567;28;20054;-59
2022/01/02 06:05:00;;;;;;;10.02;3.90;;;16.30;90.80;;;;;;4111649;28;20162;-59
2022/01/02 06:07:23;;;;;;;11.18;4.10;;;16.40;90.40;;;;;;4111674;28;20081;-59
2022/01/02 06:09:46;;;;;;;12.48;4.72;;;16.40;90.20;;;;;;4111602;28;20466;-59
2022/01/02 06:12:09;;;;;;;5.68;3.40;;;16.40;90.20;;;;;;4112526;28;20102;-59
2022/01/02 06:14:34;;;;;;;10.10;3.67;;;16.40;90.10;;;;;;4117667;28;20077;-61
2022/01/02 06:16:57;;;;;;;8.93;3.50;;;16.50;90.10;;;;;;4127721;28;20110;-59
2022/01/02 06:19:20;;;;;;;13.27;4.50;;;16.50;90.10;;;;;;4127651;28;20058;-59
2022/01/02 06:21:44;;;;;;;8.25;4.10;;;16.50;90.00;;;;;;4127375;28;20042;-59
2022/01/02 06:24:07;;;;;;;11.35;3.97;;;16.50;90.00;;;;;;4112400;28;20113;-60
2022/01/02 06:26:30;;;;;;;10.73;4.10;;;16.50;90.00;;;;;;4110892;28;20078;-59
2022/01/02 06:28:53;;;;;;;11.48;3.40;;;16.50;90.10;;;;;;4111968;28;20483;-60
2022/01/02 06:31:17;;;;;;;10.73;3.65;;;16.40;90.10;;;;;;4117899;28;20791;-60
2022/01/02 06:33:43;;;;;;;8.57;3.97;;;16.40;90.10;;;;;;4140570;28;20120;-60
2022/01/02 06:36:06;;;;;;;4.88;3.45;;;16.40;90.10;;;;;;4128484;28;20108;-59
2022/01/02 06:38:29;;;;;;;7.93;3.60;;;16.40;90.50;;;;;;4128106;28;20108;-60
2022/01/02 06:40:53;;;;;;;14.48;3.67;;;16.40;90.20;;;;;;4117377;28;20050;-60
2022/01/02 06:43:17;;;;;;;4.50;2.95;;;16.40;90.20;;;;;;4110664;28;20051;-59
2022/01/02 06:45:40;;;;;;;6.53;3.25;;;16.40;90.20;;;;;;4111008;28;20204;-59
2022/01/02 06:48:05;;;;;;;9.52;3.45;;;16.30;90.30;;;;;;4123576;28;20050;-60
2022/01/02 06:50:28;;;;;;;11.82;3.50;;;16.30;90.30;;;;;;4127163;28;20054;-59
2022/01/02 06:52:51;;;;;;;6.18;3.33;;;16.30;90.30;;;;;;4128697;28;20050;-59
2022/01/02 06:55:14;;;;;;;8.27;3.13;;;16.30;90.40;;;;;;4128586;28;20058;-59
2022/01/02 06:57:37;;;;;;;10.32;3.90;;;16.30;90.40;;;;;;4126572;28;20097;-59
2022/01/02 07:00:00;;;;;;;8.35;3.20;;;16.30;90.80;;;;;;4124217;28;20059;-60
2022/01/02 07:02:24;;;;;;;10.20;3.08;;;16.30;90.40;;;;;;4124380;28;20093;-61
2022/01/02 07:04:49;;;;;;;7.05;3.10;;;16.30;90.50;;;;;;4095711;28;20432;-60
2022/01/02 07:07:12;;;;;;;9.25;2.97;;;16.30;90.50;;;;;;4110615;28;20498;-60
2022/01/02 07:09:35;;;;;;;9.27;3.28;;;16.30;90.50;;;;;;4110650;28;20458;-60
2022/01/02 07:11:58;;;;;;;9.50;2.88;;;16.20;90.50;;;;;;4111902;28;20047;-60
2022/01/02 07:14:23;;;;;;;7.28;2.55;;;16.20;90.50;;;;;;4114018;28;20046;-59
2022/01/02 07:16:46;;;;;;;13.20;2.58;;;16.20;90.60;;;;;;4111923;28;20226;-59
2022/01/02 07:19:11;;;;;;;9.30;2.63;;;16.30;90.70;;;;;;4113029;28;20632;-58
2022/01/02 07:21:36;;;;;;;8.65;2.80;;;16.40;90.60;;;;;;4111863;28;20486;-58
2022/01/02 07:23:59;;;;;;;6.80;2.33;;;16.50;90.40;;;;;;4111520;28;20080;-59
2022/01/02 07:26:22;;;;;;;6.80;2.60;;;16.60;90.30;;;;;;4111830;28;20059;-59
2022/01/02 07:28:44;;;;;;;4.70;2.08;;;16.60;90.20;;;;;;4111963;28;20459;-59
2022/01/02 07:31:07;;;;;;;7.15;2.42;;;16.60;90.10;;;;;;4095529;28;20479;-59
2022/01/02 07:33:30;;;;;;;5.15;2.00;;;16.60;90.10;;;;;;4103234;28;20054;-59
2022/01/02 07:35:53;;;;;;;4.60;2.10;;;16.60;90.10;;;;;;4111928;28;20447;-59
2022/01/02 07:38:28;;;;;;;5.95;1.98;;;16.60;90.50;;;;;;4111175;28;20106;-59
2022/01/02 07:40:51;;;;;;;5.93;2.63;;;16.50;90.20;;;;;;4111868;28;20097;-58
2022/01/02 07:43:13;;;;;;;6.18;2.55;;;16.50;90.10;;;;;;4095938;28;20106;-59
2022/01/02 07:45:36;;;;;;;5.93;2.45;;;16.50;90.20;;;;;;4122506;28;20417;-59
2022/01/02 07:47:59;;;;;;;7.43;2.55;;;16.50;90.20;;;;;;4114179;28;20054;-59
2022/01/02 07:50:25;;;;;;;6.60;2.58;;;16.50;90.70;;;;;;4111755;28;20125;-59
2022/01/02 07:52:52;;;;;;;13.27;2.95;;;16.50;90.40;;;;;;4113687;28;20104;-60
2022/01/02 07:55:16;;;;;;;6.47;2.05;;;16.40;90.40;;;;;;4110036;28;20051;-59
2022/01/02 07:57:39;;;;;;;4.18;1.92;;;16.40;90.40;;;;;;4111685;28;20450;-59
2022/01/02 08:00:03;;;;;;;6.43;2.40;;;16.40;90.50;;;;;;4111263;28;20043;-59
2022/01/02 08:02:36;;;;;;;3.83;1.88;;;16.40;90.60;;;;;;4113846;28;20054;-59
2022/01/02 08:04:59;;;;;;;2.15;1.30;;;16.40;90.70;;;;;;4127297;28;20482;-58
2022/01/02 08:07:23;;;;;;;4.60;1.85;;;16.50;90.60;;;;;;4127286;28;20065;-58
2022/01/02 08:09:46;;;;;;;3.13;1.80;;;16.50;90.40;;;;;;4125852;28;20082;-58
2022/01/02 08:12:10;;;;;;;7.43;2.75;;;16.60;90.10;;;;;;4127403;28;20058;-59
2022/01/02 08:14:33;;;;;;;5.28;2.10;;;16.70;90.00;;;;;;4124559;28;20101;-58
2022/01/02 08:16:56;;;;;;;5.65;2.28;;;16.70;89.60;;;;;;4120242;28;20459;-59
2022/01/02 08:19:20;;;;;;;2.90;2.05;;;16.70;89.30;;;;;;4110744;28;20050;-59
2022/01/02 08:21:43;;;;;;;9.38;3.45;;;16.70;89.10;;;;;;4112064;28;20054;-57
2022/01/02 08:24:06;;;;;;;4.45;2.45;;;16.70;89.00;;;;;;4111109;28;20054;-59
2022/01/02 08:26:29;;;;;;;3.05;1.42;;;16.70;88.90;;;;;;4093472;28;20084;-59
2022/01/02 08:28:53;;;;;;;6.35;2.55;;;16.70;88.90;;;;;;4104190;28;20050;-59
2022/01/02 08:31:17;;;;;;;1.88;1.63;;;16.70;88.80;;;;;;4110330;28;20054;-59
2022/01/02 08:33:40;;;;;;;6.53;2.92;;;16.60;88.80;;;;;;4110632;28;20054;-58
2022/01/02 08:36:05;;;;;;;7.78;2.92;;;16.60;88.80;;;;;;4111402;28;20081;-59
2022/01/02 08:38:30;;;;;;;8.88;2.88;;;16.60;88.90;;;;;;4112756;28;20176;-58
2022/01/02 08:40:53;;;;;;;8.32;2.92;;;16.60;89.00;;;;;;4111696;28;20113;-58
2022/01/02 08:43:16;;;;;;;4.15;2.67;;;16.50;89.00;;;;;;4110996;28;20050;-58
2022/01/02 08:45:40;;;;;;;5.97;2.60;;;16.50;89.10;;;;;;4110819;28;20043;-59
2022/01/02 08:48:04;;;;;;;5.10;2.00;;;16.50;89.20;;;;;;4126197;28;20050;-59
2022/01/02 08:50:27;;;;;;;11.25;3.38;;;16.50;89.40;;;;;;4119004;28;20106;-59
2022/01/02 08:52:50;;;;;;;5.95;3.20;;;16.40;89.50;;;;;;4121164;28;20093;-58
2022/01/02 08:55:15;;;;;;;8.73;3.35;;;16.40;89.60;;;;;;4127625;28;20442;-58
2022/01/02 08:57:38;;;;;;;7.10;3.17;;;16.40;89.60;;;;;;4110826;28;20441;-58
2022/01/02 09:00:01;;;;;;;6.90;3.10;;;16.40;89.70;;;;;;4110650;28;20117;-59
2022/01/02 09:02:25;;;;;;;7.72;3.13;;;16.30;89.70;;;;;;4114510;28;20482;-59
2022/01/02 09:04:49;;;;;;;6.00;3.78;;;16.30;89.90;;;;;;4094165;28;20055;-58
2022/01/02 09:07:12;;;;;;;8.30;3.05;;;16.30;90.00;;;;;;4098198;28;20059;-58
2022/01/02 09:09:35;;;;;;;8.85;3.60;;;16.30;90.00;;;;;;4110592;28;20047;-58
2022/01/02 09:11:59;;;;;;;4.72;3.20;;;16.30;90.00;;;;;;4112242;28;20651;-58
2022/01/02 09:14:24;;;;;;;7.05;2.78;;;16.20;90.00;;;;;;4108012;28;20372;-59
2022/01/02 09:16:47;;;;;;;4.07;2.80;;;16.20;90.10;;;;;;4095051;28;20086;-59
2022/01/02 09:19:12;;;;;;;6.30;2.95;;;16.20;90.10;;;;;;4103604;28;20362;-59
2022/01/02 09:21:35;;;;;;;5.10;3.50;;;16.20;90.10;;;;;;4110288;28;20081;-59
2022/01/02 09:23:58;;;;;;;5.95;2.90;;;16.20;90.20;;;;;;4109825;28;20483;-59
2022/01/02 09:26:21;;;;;;;7.03;3.13;;;16.20;90.20;;;;;;4110102;28;20469;-57
2022/01/02 09:28:44;;;;;;;3.78;2.75;;;16.20;90.30;;;;;;4113064;28;20093;-58
2022/01/02 09:31:08;;;;;;;4.57;2.83;;;16.20;90.70;;;;;;4107997;28;20478;-59
2022/01/02 09:33:31;;;;;;;4.85;2.90;;;16.10;90.30;;;;;;4109343;28;20101;-59
2022/01/02 09:35:55;;;;;;;7.40;2.55;;;16.10;90.40;;;;;;4122166;28;20097;-58
2022/01/02 09:38:18;;;;;;;5.35;3.30;;;16.20;90.60;;;;;;4104271;28;20047;-59
2022/01/02 09:40:42;;;;;;;2.63;2.38;;;16.60;90.10;;;;;;4117943;28;20050;-59
2022/01/02 09:43:05;;;;;;;5.45;2.65;;;17.10;88.10;;;;;;4107704;28;20450;-59
2022/01/02 09:45:28;;;;;;;6.43;2.38;;;17.80;85.20;;;;;;4107709;28;20594;-59
2022/01/02 09:47:53;;;;;;;8.00;2.58;;;18.50;82.00;;;;;;4107297;28;20113;-59
2022/01/02 09:50:18;;;;;;;4.95;2.22;;;19.20;78.70;;;;;;4107701;28;20058;-59
2022/01/02 09:52:42;;;;;;;3.53;2.17;;;19.90;75.40;;;;;;4108078;28;20105;-59
2022/01/02 09:55:06;;;;;;;4.88;2.65;;;20.50;72.30;;;;;;4107925;28;20078;-58
2022/01/02 09:57:29;;;;;;;3.53;2.20;;;21.10;69.40;;;;;;4107859;28;20043;-59
2022/01/02 09:59:53;;;;;;;4.78;2.97;;;21.50;68.10;;;;;;4107970;28;20090;-59
2022/01/02 10:02:16;;;;;;;3.15;2.67;;;21.80;65.70;;;;;;4123415;28;20414;-59
2022/01/02 10:04:42;;;;;;;5.95;2.75;;;21.90;65.00;;;;;;4107737;28;20073;-59
2022/01/02 10:07:06;;;;;;;6.80;2.90;;;21.90;64.70;;;;;;4108020;28;20125;-59
2022/01/02 10:09:36;;;;;;;5.22;2.88;;;21.80;64.70;;;;;;4108017;28;20554;-59
2022/01/02 10:12:25;;;;;;;7.28;3.28;;;21.60;65.40;;;;;;4107692;28;20051;-58
2022/01/02 10:15:09;;;;;;;3.47;3.00;;;21.40;66.20;;;;;;4107376;28;20537;-59
2022/01/02 10:17:54;;;;;;;6.97;3.15;;;21.10;67.10;;;;;;4108480;28;20059;-59
2022/01/02 10:20:17;;;;;;;7.95;3.67;;;20.80;68.90;;;;;;4114035;28;20058;-59
2022/01/02 10:23:00;;;;;;;7.40;3.00;;;20.60;69.60;;;;;;4110150;28;20043;-59
2022/01/02 10:25:43;;;;;;;4.38;3.20;;;20.30;70.80;;;;;;4108606;28;20105;-59
2022/01/02 10:28:25;;;;;;;5.43;2.50;;;20.10;72.10;;;;;;4107726;28;20479;-59
2022/01/02 10:30:50;;;;;;;5.25;3.28;;;19.90;73.90;;;;;;4106904;28;20109;-59
2022/01/02 10:33:13;;;;;;;3.63;2.92;;;19.90;73.10;;;;;;4107689;28;20046;-59
2022/01/02 10:35:37;;;;;;;2.92;2.40;;;20.00;72.70;;;;;;4119017;28;20119;-59
2022/01/02 10:38:01;;;;;;;9.02;3.08;;;20.10;72.20;;;;;;4109550;28;20051;-57
2022/01/02 10:40:30;;;;;;;9.45;2.97;;;20.20;71.60;;;;;;4106956;28;20058;-59
2022/01/02 10:42:55;;;;;;;4.18;2.67;;;20.30;71.40;;;;;;4106992;28;20062;-59
2022/01/02 10:45:31;;;;;;;6.78;2.28;;;20.40;70.80;;;;;;4107056;28;20550;-59
2022/01/02 10:47:55;;;;;;;7.55;3.55;;;20.40;70.50;;;;;;4106723;28;20475;-59
2022/01/02 10:50:29;;;;;;;4.72;2.90;;;20.30;70.40;;;;;;4108736;28;20039;-59
2022/01/02 10:52:52;;;;;;;6.63;1.90;;;20.30;70.90;;;;;;4112360;28;20101;-58
2022/01/02 10:55:18;;;;;;;4.68;2.80;;;20.20;71.40;;;;;;4110296;28;20109;-58
2022/01/02 10:57:42;;;;;;;6.20;3.40;;;20.10;71.50;;;;;;4109623;28;20185;-59
2022/01/02 11:00:08;;;;;;;4.72;2.05;;;20.20;71.50;;;;;;4110131;28;20055;-58
2022/01/02 11:02:31;;;;;;;11.93;3.72;;;20.10;71.30;;;;;;4109257;28;20050;-58
2022/01/02 11:04:58;;;;;;;11.93;3.50;;;20.20;71.30;;;;;;4125302;28;20445;-59
2022/01/02 11:07:23;;;;;;;12.25;3.67;;;20.10;71.30;;;;;;4110195;28;20058;-58
2022/01/02 11:09:47;;;;;;;6.65;3.28;;;20.00;71.40;;;;;;4109428;28;20055;-58
2022/01/02 11:12:15;;;;;;;5.15;2.65;;;20.10;71.30;;;;;;4109707;28;20097;-59
2022/01/02 11:14:38;;;;;;;3.22;2.60;;;20.20;71.00;;;;;;4109855;28;20133;-59
2022/01/02 11:17:03;;;;;;;8.80;3.28;;;20.20;70.70;;;;;;4124590;28;20429;-58
2022/01/02 11:19:27;;;;;;;4.95;2.88;;;20.20;70.40;;;;;;4125391;28;20097;-59
2022/01/02 11:21:53;;;;;;;6.43;2.92;;;20.20;70.40;;;;;;4122498;28;20058;-59
2022/01/02 11:24:23;;;;;;;4.63;2.85;;;20.10;70.50;;;;;;4112874;28;20073;-59
2022/01/02 11:26:54;;;;;;;6.53;2.67;;;20.10;70.60;;;;;;4109255;28;20557;-58
2022/01/02 11:29:17;;;;;;;5.53;2.42;;;20.10;70.70;;;;;;4109990;28;20105;-59
2022/01/02 11:31:43;;;;;;;4.10;2.45;;;20.10;70.60;;;;;;4109608;28;20046;-59
2022/01/02 11:34:25;;;;;;;10.35;2.60;;;20.00;70.40;;;;;;4116746;28;20062;-59
2022/01/02 11:36:49;;;;;;;5.30;2.90;;;20.00;70.30;;;;;;4108697;28;20097;-59
2022/01/02 11:39:12;;;;;;;5.13;2.10;;;20.00;70.30;;;;;;4110812;28;20105;-59
2022/01/02 11:41:40;;;;;;;6.28;2.20;;;19.90;70.50;;;;;;4123815;28;20104;-59
2022/01/02 11:44:04;;;;;;;4.55;1.50;;;19.90;70.70;;;;;;4124568;28;20462;-59
2022/01/02 11:46:29;;;;;;;4.05;2.22;;;19.80;70.50;;;;;;4110898;28;20127;-59
2022/01/02 11:49:16;;;;;;;8.05;2.80;;;19.90;70.40;;;;;;4109582;28;24289;-59
2022/01/02 11:52:06;;;;;;;5.10;2.83;;;19.80;70.10;;;;;;4109291;28;20058;-59
2022/01/02 11:54:54;;;;;;;6.47;2.50;;;19.80;70.60;;;;;;4108829;28;20565;-59
2022/01/02 11:57:48;;;;;;;9.60;2.97;;;19.70;70.70;;;;;;4103011;28;20503;-59
2022/01/02 12:00:17;;;;;;;5.20;2.47;;;19.80;70.40;;;;;;4108394;28;20058;-60
2022/01/02 12:02:40;;;;;;;7.18;2.30;;;19.80;70.10;;;;;;4109624;28;20059;-59
2022/01/02 12:05:12;;;;;;;6.43;2.80;;;19.80;69.80;;;;;;4109762;28;20074;-60
2022/01/02 12:07:53;;;;;;;6.45;3.00;;;19.80;69.70;;;;;;4108555;28;20043;-59
2022/01/02 12:10:26;;;;;;;2.53;2.28;;;19.70;69.90;;;;;;4123255;28;20168;-60
2022/01/02 12:13:13;;;;;;;4.03;2.17;;;19.60;70.20;;;;;;4123907;28;20073;-60
2022/01/02 12:16:10;;;;;;;5.65;3.13;;;19.50;70.40;;;;;;4123949;28;20046;-59
2022/01/02 12:18:39;;;;;;;5.90;2.13;;;19.50;70.70;;;;;;4117733;28;20084;-60
2022/01/02 12:21:14;;;;;;;5.18;2.28;;;19.50;70.80;;;;;;4108704;28;20075;-59
2022/01/02 12:23:56;;;;;;;5.18;2.45;;;19.50;70.40;;;;;;4107978;28;20054;-59
2022/01/02 12:26:21;;;;;;;7.07;2.28;;;19.50;69.90;;;;;;4108007;28;20109;-58
2022/01/02 12:28:46;;;;;;;8.18;2.20;;;19.50;69.60;;;;;;4119249;28;20732;-59
2022/01/02 12:31:12;;;;;;;7.35;2.97;;;19.50;69.50;;;;;;4108585;28;20063;-60
2022/01/02 12:33:36;;;;;;;9.00;2.65;;;19.50;69.70;;;;;;4108699;28;20113;-60
2022/01/02 12:36:09;;;;;;;5.55;2.42;;;19.40;69.60;;;;;;4108714;28;20054;-59
2022/01/02 12:38:32;;;;;;;3.20;1.83;;;19.50;69.60;;;;;;4108722;28;20446;-59
2022/01/02 12:41:01;;;;;;;10.45;2.17;;;19.50;69.40;;;;;;4108737;28;20117;-59
2022/01/02 12:43:25;;;;;;;5.97;2.47;;;19.50;69.30;;;;;;4108324;28;20050;-60